createdAt,value
2023-09-26T00:00:53.154Z,1.80
2023-09-26T00:01:53.130Z,1.60
2023-09-26T00:02:53.318Z,1.60
2023-09-26T00:03:53.332Z,1.50
2023-09-26T00:04:53.149Z,1.50
2023-09-26T00:05:53.062Z,1.70
2023-09-26T00:06:53.106Z,1.70
2023-09-26T00:07:53.177Z,1.60
2023-09-26T00:08:53.049Z,1.60
2023-09-26T00:09:53.056Z,1.50
2023-09-26T00:10:53.009Z,1.80
2023-09-26T00:11:52.995Z,1.60
2023-09-26T00:12:53.007Z,1.60
2023-09-26T00:13:52.987Z,1.60
2023-09-26T00:14:52.966Z,1.90
2023-09-26T00:15:53.018Z,1.80
2023-09-26T00:16:53.068Z,1.90
2023-09-26T00:17:53.002Z,1.60
2023-09-26T00:18:52.963Z,1.60
2023-09-26T00:19:52.913Z,1.70
2023-09-26T00:20:52.913Z,1.70
2023-09-26T00:21:52.902Z,1.60
2023-09-26T00:22:52.896Z,1.40
2023-09-26T00:23:52.937Z,1.60
2023-09-26T00:24:52.890Z,1.70
2023-09-26T00:25:52.859Z,1.50
2023-09-26T00:26:52.838Z,1.50
2023-09-26T00:27:52.838Z,1.60
2023-09-26T00:28:52.811Z,1.50
2023-09-26T00:29:52.810Z,1.90
2023-09-26T00:30:52.829Z,1.80
2023-09-26T00:31:52.818Z,1.70
2023-09-26T00:32:52.790Z,1.50
2023-09-26T00:33:52.997Z,1.90
2023-09-26T00:34:52.756Z,1.60
2023-09-26T00:35:52.766Z,1.60
2023-09-26T00:36:52.860Z,1.60
2023-09-26T00:37:52.922Z,1.50
2023-09-26T00:38:52.696Z,1.70
2023-09-26T00:39:52.721Z,1.70
2023-09-26T00:40:52.695Z,1.70
2023-09-26T00:41:52.670Z,1.50
2023-09-26T00:42:52.747Z,1.50
2023-09-26T00:43:52.866Z,1.90
2023-09-26T00:44:52.634Z,1.60
2023-09-26T00:45:52.801Z,1.50
2023-09-26T00:46:52.790Z,1.80
2023-09-26T00:47:52.633Z,1.40
2023-09-26T00:48:52.612Z,1.70
2023-09-26T00:49:52.576Z,1.40
2023-09-26T00:50:52.626Z,1.50
2023-09-26T00:51:52.604Z,1.50
2023-09-26T00:52:52.618Z,1.70
2023-09-26T00:53:52.686Z,1.40
2023-09-26T00:54:52.547Z,1.30
2023-09-26T00:55:52.534Z,1.70
2023-09-26T00:56:52.556Z,1.80
2023-09-26T00:57:52.519Z,1.40
2023-09-26T00:58:52.478Z,1.70
2023-09-26T00:59:52.471Z,1.50
2023-09-26T01:00:52.525Z,1.70
2023-09-26T01:01:52.501Z,1.70
2023-09-26T01:02:52.509Z,1.60
2023-09-26T01:03:52.669Z,1.50
2023-09-26T01:04:52.427Z,1.50
2023-09-26T01:05:52.414Z,1.70
2023-09-26T01:06:52.460Z,1.60
2023-09-26T01:07:52.384Z,1.60
2023-09-26T01:08:52.390Z,1.70
2023-09-26T01:09:52.413Z,1.80
2023-09-26T01:10:52.345Z,1.50
2023-09-26T01:11:52.360Z,1.70
2023-09-26T01:12:52.380Z,1.80
2023-09-26T01:13:52.571Z,1.70
2023-09-26T01:14:52.303Z,1.70
2023-09-26T01:15:52.366Z,1.90
2023-09-26T01:16:52.352Z,1.70
2023-09-26T01:17:52.347Z,1.70
2023-09-26T01:18:52.299Z,1.70
2023-09-26T01:19:52.246Z,1.60
2023-09-26T01:20:52.273Z,1.50
2023-09-26T01:21:52.268Z,1.70
2023-09-26T01:22:52.265Z,1.60
2023-09-26T01:23:52.237Z,1.50
2023-09-26T01:24:52.278Z,1.50
2023-09-26T01:25:52.189Z,1.50
2023-09-26T01:26:52.186Z,2.00
2023-09-26T01:27:52.183Z,1.60
2023-09-26T01:28:52.231Z,1.80
2023-09-26T01:29:52.141Z,1.80
2023-09-26T01:30:52.159Z,1.70
2023-09-26T01:31:52.162Z,1.50
2023-09-26T01:32:52.223Z,1.90
2023-09-26T01:33:52.323Z,1.60
2023-09-26T01:34:52.095Z,3.50
2023-09-26T01:35:52.078Z,2.00
2023-09-26T01:36:52.095Z,1.70
2023-09-26T01:37:52.082Z,1.70
2023-09-26T01:38:52.068Z,1.90
2023-09-26T01:39:52.060Z,1.70
2023-09-26T01:40:52.055Z,1.70
2023-09-26T01:41:52.025Z,1.90
2023-09-26T01:42:52.054Z,1.60
2023-09-26T01:43:52.143Z,2.00
2023-09-26T01:44:52.031Z,1.50
2023-09-26T01:45:52.014Z,1.70
2023-09-26T01:46:52.061Z,1.80
2023-09-26T01:47:51.964Z,1.80
2023-09-26T01:48:52.017Z,2.00
2023-09-26T01:49:51.943Z,1.60
2023-09-26T01:50:51.916Z,1.60
2023-09-26T01:51:51.933Z,1.90
2023-09-26T01:52:51.919Z,1.70
2023-09-26T01:53:52.013Z,1.60
2023-09-26T01:54:51.971Z,1.60
2023-09-26T01:55:51.869Z,1.70
2023-09-26T01:56:51.856Z,1.70
2023-09-26T01:57:51.891Z,1.40
2023-09-26T01:58:51.832Z,2.00
2023-09-26T01:59:51.816Z,1.90
2023-09-26T02:00:51.828Z,1.60
2023-09-26T02:01:51.848Z,1.40
2023-09-26T02:02:51.821Z,1.70
2023-09-26T02:03:51.907Z,1.50
2023-09-26T02:04:51.788Z,1.80
2023-09-26T02:05:51.788Z,1.80
2023-09-26T02:06:51.767Z,1.70
2023-09-26T02:07:51.733Z,1.80
2023-09-26T02:08:51.717Z,1.70
2023-09-26T02:09:51.712Z,1.90
2023-09-26T02:10:51.753Z,2.00
2023-09-26T02:11:51.696Z,1.70
2023-09-26T02:12:51.855Z,1.90
2023-09-26T02:13:51.969Z,1.80
2023-09-26T02:14:51.664Z,1.90
2023-09-26T02:15:51.770Z,2.00
2023-09-26T02:16:51.722Z,1.70
2023-09-26T02:17:51.663Z,1.70
2023-09-26T02:18:51.636Z,1.60
2023-09-26T02:19:51.668Z,1.90
2023-09-26T02:20:51.611Z,1.80
2023-09-26T02:21:51.637Z,1.80
2023-09-26T02:22:51.604Z,1.60
2023-09-26T02:23:51.811Z,1.80
2023-09-26T02:24:51.602Z,1.90
2023-09-26T02:25:51.557Z,1.90
2023-09-26T02:26:51.563Z,1.80
2023-09-26T02:27:51.743Z,1.80
2023-09-26T02:28:51.504Z,1.90
2023-09-26T02:29:51.498Z,1.60
2023-09-26T02:30:51.530Z,2.00
2023-09-26T02:31:51.581Z,1.70
2023-09-26T02:32:51.531Z,1.70
2023-09-26T02:33:51.647Z,1.70
2023-09-26T02:34:51.456Z,2.00
2023-09-26T02:35:51.426Z,2.00
2023-09-26T02:36:51.466Z,1.70
2023-09-26T02:37:51.459Z,1.60
2023-09-26T02:38:51.398Z,1.80
2023-09-26T02:39:51.472Z,2.00
2023-09-26T02:40:51.384Z,1.80
2023-09-26T02:41:51.380Z,1.70
2023-09-26T02:44:03.413Z,1.70
2023-09-26T02:45:04.387Z,1.60
2023-09-26T02:46:04.538Z,2.00
2023-09-26T02:47:04.370Z,1.70
2023-09-26T02:48:04.571Z,1.70
2023-09-26T02:49:04.409Z,1.80
2023-09-26T02:50:04.357Z,1.70
2023-09-26T02:51:04.333Z,1.80
2023-09-26T02:52:04.353Z,1.80
2023-09-26T02:53:04.355Z,1.90
2023-09-26T02:54:04.306Z,1.90
2023-09-26T02:55:04.315Z,1.80
2023-09-26T02:56:04.268Z,1.80
2023-09-26T02:57:11.792Z,1.90
2023-09-26T02:58:04.280Z,1.80
2023-09-26T02:59:04.275Z,2.10
2023-09-26T03:00:04.250Z,1.90
2023-09-26T03:01:04.267Z,2.00
2023-09-26T03:02:04.257Z,2.10
2023-09-26T03:03:04.277Z,1.90
2023-09-26T03:04:04.269Z,1.70
2023-09-26T03:05:04.198Z,1.90
2023-09-26T03:06:04.161Z,1.80
2023-09-26T03:07:04.194Z,2.10
2023-09-26T03:08:04.175Z,1.90
2023-09-26T03:09:04.169Z,2.00
2023-09-26T03:10:04.185Z,2.00
2023-09-26T03:11:04.108Z,1.90
2023-09-26T03:12:04.124Z,2.00
2023-09-26T03:13:04.134Z,2.10
2023-09-26T03:14:04.115Z,2.20
2023-09-26T03:15:04.077Z,2.50
2023-09-26T03:16:04.128Z,2.50
2023-09-26T03:17:04.197Z,2.50
2023-09-26T03:18:04.097Z,2.30
2023-09-26T03:19:04.088Z,2.50
2023-09-26T03:20:04.026Z,2.20
2023-09-26T03:21:04.001Z,2.50
2023-09-26T03:22:04.009Z,2.50
2023-09-26T03:23:03.976Z,2.60
2023-09-26T03:24:03.994Z,2.40
2023-09-26T03:25:04.045Z,2.30
2023-09-26T03:26:03.968Z,2.60
2023-09-26T03:27:03.949Z,2.60
2023-09-26T03:28:03.933Z,2.60
2023-09-26T03:29:03.918Z,2.60
2023-09-26T03:30:03.947Z,2.60
2023-09-26T03:31:03.979Z,2.40
2023-09-26T03:32:04.070Z,2.40
2023-09-26T03:33:03.914Z,2.60
2023-09-26T03:34:03.895Z,2.40
2023-09-26T03:35:03.889Z,2.50
2023-09-26T03:36:03.848Z,2.50
2023-09-26T03:37:03.886Z,2.60
2023-09-26T03:38:03.842Z,2.40
2023-09-26T03:39:03.839Z,2.70
2023-09-26T03:40:03.864Z,3.00
2023-09-26T03:41:03.790Z,3.40
2023-09-26T03:42:03.786Z,2.60
2023-09-26T03:43:03.788Z,2.50
2023-09-26T03:44:03.775Z,2.70
2023-09-26T03:45:03.779Z,2.50
2023-09-26T03:46:03.832Z,2.90
2023-09-26T03:47:03.812Z,2.60
2023-09-26T03:48:03.751Z,2.80
2023-09-26T03:49:03.776Z,2.80
2023-09-26T03:50:03.719Z,3.00
2023-09-26T03:51:03.681Z,2.70
2023-09-26T03:52:03.690Z,2.20
2023-09-26T03:53:03.668Z,2.80
2023-09-26T03:54:03.648Z,2.60
2023-09-26T03:55:03.923Z,2.60
2023-09-26T03:56:03.655Z,3.10
2023-09-26T03:57:03.619Z,3.10
2023-09-26T03:58:03.655Z,3.10
2023-09-26T03:59:03.625Z,3.00
2023-09-26T04:00:03.581Z,2.60
2023-09-26T04:01:03.658Z,2.70
2023-09-26T04:02:03.697Z,2.30
2023-09-26T04:03:03.580Z,2.60
2023-09-26T04:04:03.809Z,2.70
2023-09-26T04:05:03.525Z,2.50
2023-09-26T04:06:03.545Z,2.50
2023-09-26T04:07:03.581Z,2.70
2023-09-26T04:08:03.501Z,3.70
2023-09-26T04:09:03.494Z,2.60
2023-09-26T04:10:03.528Z,2.80
2023-09-26T04:11:03.505Z,2.70
2023-09-26T04:12:03.466Z,3.00
2023-09-26T04:13:03.514Z,2.70
2023-09-26T04:14:03.441Z,2.60
2023-09-26T04:15:03.443Z,2.60
2023-09-26T04:16:03.447Z,2.80
2023-09-26T04:17:03.388Z,2.80
2023-09-26T04:18:03.434Z,2.60
2023-09-26T04:19:03.508Z,2.40
2023-09-26T04:20:03.463Z,2.70
2023-09-26T04:21:03.382Z,2.50
2023-09-26T04:22:03.391Z,3.00
2023-09-26T04:23:03.327Z,2.60
2023-09-26T04:24:03.331Z,2.50
2023-09-26T04:25:03.360Z,2.50
2023-09-26T04:26:03.356Z,2.80
2023-09-26T04:27:03.305Z,2.70
2023-09-26T04:28:03.353Z,2.40
2023-09-26T04:29:03.308Z,2.70
2023-09-26T04:30:03.267Z,2.70
2023-09-26T04:31:03.383Z,2.20
2023-09-26T04:32:03.382Z,2.40
2023-09-26T04:33:03.281Z,2.50
2023-09-26T04:34:03.231Z,2.60
2023-09-26T04:35:03.235Z,2.40
2023-09-26T04:36:03.202Z,2.70
2023-09-26T04:37:03.312Z,2.30
2023-09-26T04:38:03.267Z,2.50
2023-09-26T04:39:03.164Z,2.80
2023-09-26T04:40:03.180Z,2.80
2023-09-26T04:41:03.170Z,2.80
2023-09-26T04:42:03.159Z,2.30
2023-09-26T04:43:03.136Z,2.40
2023-09-26T04:44:03.105Z,2.70
2023-09-26T04:45:03.104Z,2.50
2023-09-26T04:46:03.120Z,2.40
2023-09-26T04:47:03.126Z,2.30
2023-09-26T04:48:03.156Z,2.30
2023-09-26T04:49:03.150Z,2.30
2023-09-26T04:50:03.034Z,2.00
2023-09-26T04:51:03.059Z,2.30
2023-09-26T04:52:03.132Z,2.30
2023-09-26T04:53:03.019Z,2.20
2023-09-26T04:54:03.047Z,2.20
2023-09-26T04:55:03.053Z,2.10
2023-09-26T04:56:02.998Z,2.40
2023-09-26T04:57:03.020Z,2.50
2023-09-26T04:58:03.079Z,2.00
2023-09-26T04:59:02.937Z,2.30
2023-09-26T05:00:02.948Z,2.50
2023-09-26T05:01:02.993Z,2.20
2023-09-26T05:02:03.016Z,2.20
2023-09-26T05:03:02.966Z,2.20
2023-09-26T05:04:02.987Z,2.30
2023-09-26T05:05:02.887Z,2.20
2023-09-26T05:06:02.886Z,2.20
2023-09-26T05:07:02.915Z,2.10
2023-09-26T05:08:02.863Z,2.30
2023-09-26T05:09:02.843Z,2.40
2023-09-26T05:10:03.051Z,2.30
2023-09-26T05:11:02.847Z,2.20
2023-09-26T05:12:02.822Z,2.40
2023-09-26T05:13:02.850Z,2.40
2023-09-26T05:14:02.784Z,2.30
2023-09-26T05:15:02.766Z,2.40
2023-09-26T05:16:02.802Z,2.40
2023-09-26T05:17:02.839Z,2.10
2023-09-26T05:18:02.823Z,2.20
2023-09-26T05:19:02.752Z,2.20
2023-09-26T05:20:02.717Z,2.30
2023-09-26T05:21:02.714Z,2.10
2023-09-26T05:22:02.819Z,2.30
2023-09-26T05:23:02.701Z,2.30
2023-09-26T05:24:02.689Z,2.40
2023-09-26T05:25:02.690Z,2.30
2023-09-26T05:26:02.697Z,2.50
2023-09-26T05:27:02.643Z,2.40
2023-09-26T05:28:02.716Z,2.40
2023-09-26T05:29:02.636Z,2.40
2023-09-26T05:30:02.605Z,2.20
2023-09-26T05:31:02.699Z,2.30
2023-09-26T05:32:02.684Z,2.30
2023-09-26T05:33:02.651Z,2.40
2023-09-26T05:34:02.615Z,2.50
2023-09-26T05:35:02.576Z,2.60
2023-09-26T05:36:02.540Z,2.20
2023-09-26T05:37:02.581Z,2.60
2023-09-26T05:38:02.524Z,2.50
2023-09-26T05:39:02.535Z,2.20
2023-09-26T05:40:02.516Z,2.20
2023-09-26T05:41:02.492Z,3.00
2023-09-26T05:42:02.510Z,2.40
2023-09-26T05:43:02.557Z,2.50
2023-09-26T05:44:02.478Z,2.40
2023-09-26T05:45:02.440Z,2.00
2023-09-26T05:46:02.529Z,2.50
2023-09-26T05:47:02.503Z,2.30
2023-09-26T05:48:02.443Z,2.40
2023-09-26T05:49:02.441Z,2.30
2023-09-26T05:50:02.389Z,2.20
2023-09-26T05:51:02.398Z,2.90
2023-09-26T05:52:02.380Z,2.50
2023-09-26T05:53:02.366Z,2.50
2023-09-26T05:54:02.359Z,2.30
2023-09-26T05:55:02.424Z,2.20
2023-09-26T05:56:02.333Z,2.50
2023-09-26T05:57:02.318Z,2.10
2023-09-26T05:58:02.334Z,2.20
2023-09-26T05:59:02.320Z,2.10
2023-09-26T06:00:02.296Z,2.40
2023-09-26T06:01:02.370Z,2.30
2023-09-26T06:02:02.370Z,2.30
2023-09-26T06:03:02.414Z,2.80
2023-09-26T06:04:02.341Z,2.20
2023-09-26T06:05:02.499Z,2.30
2023-09-26T06:06:02.220Z,2.50
2023-09-26T06:07:02.314Z,2.40
2023-09-26T06:08:02.206Z,2.20
2023-09-26T06:09:02.214Z,2.60
2023-09-26T06:10:09.047Z,2.30
2023-09-26T06:11:02.182Z,2.60
2023-09-26T06:12:02.152Z,2.50
2023-09-26T06:13:02.182Z,2.60
2023-09-26T06:14:02.128Z,2.90
2023-09-26T06:15:02.154Z,2.90
2023-09-26T06:16:02.182Z,2.50
2023-09-26T06:17:02.161Z,3.40
2023-09-26T06:18:02.139Z,2.50
2023-09-26T06:19:02.110Z,2.20
2023-09-26T06:20:02.088Z,2.70
2023-09-26T06:21:02.072Z,2.30
2023-09-26T06:22:02.066Z,2.80
2023-09-26T06:23:02.033Z,2.40
2023-09-26T06:24:02.032Z,2.50
2023-09-26T06:25:02.134Z,2.80
2023-09-26T06:26:02.006Z,2.30
2023-09-26T06:27:02.007Z,2.50
2023-09-26T06:28:02.000Z,3.30
2023-09-26T06:29:01.981Z,2.30
2023-09-26T06:30:01.981Z,2.30
2023-09-26T06:31:01.989Z,2.90
2023-09-26T06:32:01.970Z,2.70
2023-09-26T06:33:02.025Z,2.90
2023-09-26T06:34:01.954Z,2.40
2023-09-26T06:35:01.952Z,2.50
2023-09-26T06:36:01.909Z,2.60
2023-09-26T06:37:01.994Z,2.40
2023-09-26T06:38:01.862Z,2.90
2023-09-26T06:39:01.856Z,2.80
2023-09-26T06:40:01.936Z,2.40
2023-09-26T06:41:01.854Z,2.90
2023-09-26T06:42:01.845Z,2.50
2023-09-26T06:43:01.915Z,3.00
2023-09-26T06:44:01.795Z,2.20
2023-09-26T06:45:01.823Z,2.30
2023-09-26T06:46:01.948Z,2.50
2023-09-26T06:47:01.830Z,2.40
2023-09-26T06:48:01.837Z,3.80
2023-09-26T06:49:01.823Z,2.50
2023-09-26T06:50:01.729Z,3.70
2023-09-26T06:51:01.756Z,2.50
2023-09-26T06:52:01.787Z,2.60
2023-09-26T06:53:01.719Z,2.80
2023-09-26T06:54:01.705Z,2.50
2023-09-26T06:55:01.755Z,2.30
2023-09-26T06:56:01.856Z,2.50
2023-09-26T06:57:01.657Z,2.30
2023-09-26T06:58:01.725Z,2.50
2023-09-26T06:59:01.861Z,3.10
2023-09-26T07:00:01.664Z,2.60
2023-09-26T07:01:01.660Z,2.00
2023-09-26T07:02:01.701Z,2.60
2023-09-26T07:03:01.667Z,2.80
2023-09-26T07:04:01.741Z,3.00
2023-09-26T07:05:01.651Z,2.90
2023-09-26T07:06:01.591Z,2.40
2023-09-26T07:07:01.856Z,2.40
2023-09-26T07:08:01.566Z,2.40
2023-09-26T07:09:01.561Z,2.00
2023-09-26T07:10:01.535Z,2.00
2023-09-26T07:11:01.508Z,2.20
2023-09-26T07:12:01.585Z,2.30
2023-09-26T07:13:01.525Z,2.30
2023-09-26T07:14:01.833Z,2.50
2023-09-26T07:15:01.499Z,2.60
2023-09-26T07:16:01.487Z,2.80
2023-09-26T07:17:01.491Z,2.40
2023-09-26T07:18:01.457Z,2.70
2023-09-26T07:19:01.487Z,2.60
2023-09-26T07:20:01.416Z,2.10
2023-09-26T07:21:01.404Z,2.40
2023-09-26T07:22:01.501Z,2.60
2023-09-26T07:23:01.382Z,2.80
2023-09-26T07:24:01.431Z,2.30
2023-09-26T07:25:01.473Z,2.30
2023-09-26T07:26:01.366Z,2.20
2023-09-26T07:27:01.373Z,2.60
2023-09-26T07:28:01.421Z,2.40
2023-09-26T07:29:01.310Z,2.40
2023-09-26T07:30:01.304Z,2.50
2023-09-26T07:31:01.408Z,2.00
2023-09-26T07:32:01.306Z,2.10
2023-09-26T07:33:01.365Z,2.30
2023-09-26T07:34:01.290Z,2.20
2023-09-26T07:35:01.249Z,2.60
2023-09-26T07:36:01.240Z,2.40
2023-09-26T07:37:01.265Z,2.20
2023-09-26T07:38:01.235Z,2.40
2023-09-26T07:39:01.204Z,2.30
2023-09-26T07:40:01.242Z,2.50
2023-09-26T07:41:01.209Z,2.60
2023-09-26T07:42:01.192Z,2.50
2023-09-26T07:43:01.200Z,2.20
2023-09-26T07:44:01.143Z,2.40
2023-09-26T07:45:01.137Z,2.20
2023-09-26T07:46:01.262Z,2.50
2023-09-26T07:47:01.267Z,2.50
2023-09-26T07:48:01.203Z,2.20
2023-09-26T07:49:01.137Z,2.20
2023-09-26T07:50:01.099Z,2.20
2023-09-26T07:51:01.102Z,2.50
2023-09-26T07:52:01.106Z,2.40
2023-09-26T07:53:01.088Z,2.50
2023-09-26T07:54:01.047Z,2.10
2023-09-26T07:55:01.071Z,2.20
2023-09-26T07:56:01.025Z,2.30
2023-09-26T07:57:01.017Z,2.30
2023-09-26T07:58:01.083Z,2.10
2023-09-26T07:59:01.004Z,2.20
2023-09-26T08:00:00.965Z,2.40
2023-09-26T08:01:01.076Z,2.20
2023-09-26T08:02:01.026Z,2.20
2023-09-26T08:03:00.977Z,2.40
2023-09-26T08:04:01.005Z,2.10
2023-09-26T08:05:01.050Z,2.30
2023-09-26T08:06:00.944Z,2.50
2023-09-26T08:07:00.919Z,2.60
2023-09-26T08:08:00.883Z,2.10
2023-09-26T08:09:00.914Z,2.40
2023-09-26T08:10:00.884Z,2.20
2023-09-26T08:11:00.857Z,2.40
2023-09-26T08:12:00.843Z,2.20
2023-09-26T08:13:00.884Z,2.40
2023-09-26T08:14:00.848Z,2.20
2023-09-26T08:15:00.809Z,2.50
2023-09-26T08:16:00.903Z,2.20
2023-09-26T08:17:00.869Z,2.00
2023-09-26T08:18:00.823Z,2.30
2023-09-26T08:19:00.844Z,2.20
2023-09-26T08:20:00.746Z,2.30
2023-09-26T08:21:00.752Z,1.90
2023-09-26T08:22:00.783Z,2.30
2023-09-26T08:23:00.739Z,2.10
2023-09-26T08:24:00.736Z,2.30
2023-09-26T08:25:00.738Z,2.30
2023-09-26T08:26:00.685Z,2.10
2023-09-26T08:27:00.675Z,2.20
2023-09-26T08:28:00.710Z,2.20
2023-09-26T08:29:00.678Z,2.50
2023-09-26T08:30:00.644Z,2.30
2023-09-26T08:31:00.691Z,1.90
2023-09-26T08:32:00.637Z,2.40
2023-09-26T08:33:00.680Z,2.20
2023-09-26T08:34:00.640Z,2.20
2023-09-26T08:35:00.611Z,2.10
2023-09-26T08:36:00.610Z,2.10
2023-09-26T08:37:00.597Z,2.30
2023-09-26T08:38:00.551Z,2.30
2023-09-26T08:39:00.544Z,2.30
2023-09-26T08:40:00.616Z,2.30
2023-09-26T08:41:00.534Z,2.30
2023-09-26T08:42:00.508Z,2.30
2023-09-26T08:43:00.541Z,2.10
2023-09-26T08:44:00.484Z,2.10
2023-09-26T08:45:00.495Z,2.00
2023-09-26T08:46:00.503Z,2.10
2023-09-26T08:47:00.576Z,2.00
2023-09-26T08:48:00.598Z,1.90
2023-09-26T08:49:00.963Z,2.30
2023-09-26T08:50:00.509Z,2.20
2023-09-26T08:51:00.424Z,2.10
2023-09-26T08:52:00.464Z,2.10
2023-09-26T08:53:00.408Z,2.30
2023-09-26T08:54:00.372Z,2.30
2023-09-26T08:55:00.413Z,2.10
2023-09-26T08:56:00.355Z,2.00
2023-09-26T08:57:00.354Z,2.00
2023-09-26T08:58:06.925Z,2.30
2023-09-26T08:59:00.339Z,1.90
2023-09-26T09:00:00.359Z,2.00
2023-09-26T09:01:00.366Z,2.10
2023-09-26T09:02:00.322Z,2.20
2023-09-26T09:03:00.376Z,2.30
2023-09-26T09:04:00.451Z,2.10
2023-09-26T09:05:01.623Z,1.90
2023-09-26T09:06:00.292Z,2.10
2023-09-26T09:07:00.248Z,1.90
2023-09-26T09:08:00.250Z,2.30
2023-09-26T09:09:01.165Z,2.10
2023-09-26T09:10:00.291Z,2.40
2023-09-26T09:11:00.240Z,2.10
2023-09-26T09:12:00.205Z,2.40
2023-09-26T09:13:00.224Z,2.00
2023-09-26T09:14:00.185Z,2.10
2023-09-26T09:15:00.159Z,2.20
2023-09-26T09:16:00.245Z,2.10
2023-09-26T09:17:00.239Z,2.30
2023-09-26T09:18:00.164Z,2.00
2023-09-26T09:19:00.386Z,2.30
2023-09-26T09:20:00.201Z,2.30
2023-09-26T09:21:00.105Z,2.00
2023-09-26T09:22:00.116Z,2.00
2023-09-26T09:23:00.085Z,2.20
2023-09-26T09:24:00.086Z,2.00
2023-09-26T09:25:00.063Z,2.10
2023-09-26T09:26:00.043Z,1.90
2023-09-26T09:27:00.043Z,2.10
2023-09-26T09:28:00.075Z,2.20
2023-09-26T09:29:00.018Z,1.90
2023-09-26T09:30:00.028Z,2.40
2023-09-26T09:31:00.051Z,2.20
2023-09-26T09:32:00.029Z,1.80
2023-09-26T09:33:00.033Z,1.90
2023-09-26T09:33:59.991Z,2.00
2023-09-26T09:34:59.947Z,1.90
2023-09-26T09:35:59.942Z,2.20
2023-09-26T09:36:59.998Z,2.10
2023-09-26T09:37:59.947Z,1.80
2023-09-26T09:38:59.919Z,2.00
2023-09-26T09:39:59.926Z,2.20
2023-09-26T09:40:59.892Z,2.10
2023-09-26T09:41:59.895Z,2.10
2023-09-26T09:42:59.927Z,1.90
2023-09-26T09:43:59.892Z,2.00
2023-09-26T09:44:59.850Z,2.30
2023-09-26T09:45:59.966Z,1.80
2023-09-26T09:46:59.923Z,1.90
2023-09-26T09:47:59.878Z,2.00
2023-09-26T09:48:59.806Z,2.00
2023-09-26T09:49:59.800Z,1.90
2023-09-26T09:50:59.777Z,2.00
2023-09-26T09:51:59.790Z,2.00
2023-09-26T09:52:59.747Z,2.10
2023-09-26T09:53:59.774Z,1.80
2023-09-26T09:54:59.760Z,2.10
2023-09-26T09:55:59.716Z,2.10
2023-09-26T09:56:59.718Z,1.80
2023-09-26T09:57:59.739Z,2.10
2023-09-26T09:58:59.745Z,2.10
2023-09-26T09:59:59.700Z,2.10
2023-09-26T10:00:59.683Z,2.00
2023-09-26T10:01:59.743Z,1.80
2023-09-26T10:02:59.700Z,2.00
2023-09-26T10:03:59.716Z,2.10
2023-09-26T10:04:59.624Z,2.00
2023-09-26T10:05:59.608Z,2.00
2023-09-26T10:06:59.646Z,2.00
2023-09-26T10:07:59.584Z,1.70
2023-09-26T10:08:59.583Z,2.10
2023-09-26T10:09:59.633Z,1.80
2023-09-26T10:11:01.760Z,1.70
2023-09-26T10:11:59.533Z,1.90
2023-09-26T10:13:28.524Z,1.90
2023-09-26T10:13:59.574Z,2.30
2023-09-26T10:14:59.513Z,1.80
2023-09-26T10:15:59.543Z,2.00
2023-09-26T10:16:59.523Z,2.00
2023-09-26T10:17:59.488Z,2.00
2023-09-26T10:18:59.535Z,2.30
2023-09-26T10:20:11.555Z,1.80
2023-09-26T10:20:59.458Z,1.70
2023-09-26T10:21:59.491Z,1.70
2023-09-26T10:22:59.414Z,1.90
2023-09-26T10:23:59.404Z,1.90
2023-09-26T10:24:59.422Z,2.00
2023-09-26T10:25:59.426Z,1.80
2023-09-26T10:27:03.592Z,1.70
2023-09-26T10:28:00.345Z,2.00
2023-09-26T10:28:59.357Z,2.00
2023-09-26T10:29:59.364Z,1.50
2023-09-26T10:30:59.377Z,1.80
2023-09-26T10:31:59.466Z,2.00
2023-09-26T10:32:59.384Z,1.70
2023-09-26T10:33:59.362Z,1.80
2023-09-26T10:34:59.290Z,1.80
2023-09-26T10:35:59.311Z,1.90
2023-09-26T10:36:59.288Z,1.80
2023-09-26T10:37:59.254Z,1.90
2023-09-26T10:38:59.624Z,1.80
2023-09-26T10:39:59.246Z,2.10
2023-09-26T10:40:59.279Z,1.80
2023-09-26T10:44:00.558Z,1.70
2023-09-26T10:44:59.176Z,1.80
2023-09-26T10:45:59.255Z,1.90
2023-09-26T10:46:59.273Z,1.80
2023-09-26T11:15:19.326Z,1.60
2023-09-26T11:15:24.868Z,2.20
2023-09-26T11:16:24.805Z,1.90
2023-09-26T11:17:24.871Z,1.90
2023-09-26T11:18:24.896Z,1.80
2023-09-26T11:19:24.897Z,2.00
2023-09-26T11:20:24.787Z,1.90
2023-09-26T11:21:28.014Z,2.00
2023-09-26T11:22:24.766Z,1.90
2023-09-26T11:23:24.745Z,1.90
2023-09-26T11:24:24.760Z,2.00
2023-09-26T11:25:24.792Z,1.80
2023-09-26T11:26:24.707Z,1.90
2023-09-26T11:27:24.693Z,1.90
2023-09-26T11:28:24.686Z,2.00
2023-09-26T11:29:24.694Z,1.90
2023-09-26T11:30:24.653Z,2.00
2023-09-26T11:31:24.681Z,2.00
2023-09-26T11:32:24.758Z,2.10
2023-09-26T11:33:24.643Z,2.10
2023-09-26T11:34:24.642Z,1.90
2023-09-26T11:35:24.606Z,1.90
2023-09-26T11:36:24.599Z,1.90
2023-09-26T11:37:24.592Z,2.10
2023-09-26T11:38:24.571Z,1.90
2023-09-26T11:39:24.565Z,1.90
2023-09-26T11:40:24.575Z,1.90
2023-09-26T11:41:29.332Z,1.80
2023-09-26T11:42:24.568Z,1.90
2023-09-26T11:43:24.515Z,1.80
2023-09-26T11:44:24.497Z,1.80
2023-09-26T11:45:24.535Z,2.10
2023-09-26T11:46:24.523Z,1.80
2023-09-26T11:47:24.520Z,1.80
2023-09-26T11:48:24.457Z,1.90
2023-09-26T11:49:24.446Z,1.90
2023-09-26T11:50:24.450Z,1.80
2023-09-26T11:51:24.426Z,1.60
2023-09-26T11:52:24.418Z,1.90
2023-09-26T11:53:24.415Z,1.70
2023-09-26T11:54:24.393Z,1.80
2023-09-26T11:55:24.427Z,1.50
2023-09-26T11:56:24.378Z,1.90
2023-09-26T11:57:24.362Z,1.80
2023-09-26T11:58:24.362Z,1.90
2023-09-26T11:59:24.351Z,1.90
2023-09-26T12:00:24.352Z,1.80
2023-09-26T12:01:24.389Z,1.80
2023-09-26T12:02:24.348Z,1.60
2023-09-26T12:03:24.323Z,1.90
2023-09-26T12:04:24.400Z,1.60
2023-09-26T12:05:24.385Z,1.70
2023-09-26T12:06:24.342Z,1.90
2023-09-26T12:07:24.258Z,2.00
2023-09-26T12:08:24.241Z,1.90
2023-09-26T12:09:24.236Z,1.80
2023-09-26T12:10:24.224Z,1.80
2023-09-26T12:11:24.236Z,1.80
2023-09-26T12:12:24.195Z,1.70
2023-09-26T12:13:24.225Z,2.40
2023-09-26T12:14:24.172Z,1.80
2023-09-26T12:15:24.212Z,1.90
2023-09-26T12:16:24.196Z,1.70
2023-09-26T12:17:24.319Z,1.90
2023-09-26T12:18:24.151Z,1.80
2023-09-26T12:19:24.171Z,1.90
2023-09-26T12:20:24.122Z,1.80
2023-09-26T12:21:24.093Z,1.80
2023-09-26T12:22:24.102Z,1.70
2023-09-26T12:23:24.252Z,1.60
2023-09-26T12:24:24.056Z,1.90
2023-09-26T12:25:24.234Z,1.70
2023-09-26T12:26:24.046Z,1.70
2023-09-26T12:27:24.042Z,1.90
2023-09-26T12:28:24.017Z,1.90
2023-09-26T12:29:24.010Z,1.90
2023-09-26T12:30:23.993Z,2.10
2023-09-26T12:31:24.015Z,1.80
2023-09-26T12:32:24.153Z,1.80
2023-09-26T12:33:24.002Z,1.80
2023-09-26T12:34:23.951Z,2.00
2023-09-26T12:35:23.943Z,1.70
2023-09-26T12:36:23.926Z,1.60
2023-09-26T12:37:23.929Z,2.00
2023-09-26T12:38:23.905Z,1.80
2023-09-26T12:39:23.896Z,1.70
2023-09-26T12:40:23.881Z,1.60
2023-09-26T12:41:23.887Z,1.80
2023-09-26T12:42:23.878Z,1.50
2023-09-26T12:43:23.854Z,2.00
2023-09-26T12:44:23.842Z,1.70
2023-09-26T12:45:23.842Z,1.80
2023-09-26T12:46:23.829Z,1.70
2023-09-26T12:47:23.856Z,1.80
2023-09-26T12:48:23.838Z,1.70
2023-09-26T12:49:23.795Z,1.50
2023-09-26T12:50:23.782Z,1.80
2023-09-26T12:51:23.783Z,1.80
2023-09-26T12:52:23.782Z,1.90
2023-09-26T12:53:23.751Z,1.90
2023-09-26T12:54:23.753Z,1.90
2023-09-26T12:55:23.730Z,1.70
2023-09-26T12:56:23.713Z,1.80
2023-09-26T12:57:23.705Z,1.70
2023-09-26T12:58:23.721Z,1.70
2023-09-26T12:59:23.743Z,1.60
2023-09-26T13:00:23.703Z,1.70
2023-09-26T13:01:23.679Z,1.90
2023-09-26T13:02:23.715Z,1.70
2023-09-26T13:03:23.695Z,1.90
2023-09-26T13:04:23.623Z,1.80
2023-09-26T13:05:23.619Z,1.80
2023-09-26T13:06:23.612Z,1.60
2023-09-26T13:07:23.647Z,1.70
2023-09-26T13:08:23.626Z,1.70
2023-09-26T13:09:23.577Z,2.00
2023-09-26T13:10:23.576Z,1.60
2023-09-26T13:11:23.571Z,1.60
2023-09-26T13:12:23.568Z,1.60
2023-09-26T13:13:23.558Z,1.50
2023-09-26T13:14:23.517Z,1.30
2023-09-26T13:15:23.504Z,1.60
2023-09-26T13:16:23.503Z,1.50
2023-09-26T13:17:23.482Z,1.60
2023-09-26T13:18:23.505Z,1.80
2023-09-26T13:19:23.453Z,1.50
2023-09-26T13:20:23.470Z,1.50
2023-09-26T13:21:23.445Z,1.50
2023-09-26T13:22:23.434Z,1.70
2023-09-26T13:23:23.446Z,1.70
2023-09-26T13:24:23.428Z,1.70
2023-09-26T13:25:23.397Z,1.60
2023-09-26T13:26:23.377Z,1.60
2023-09-26T13:27:23.377Z,1.50
2023-09-26T13:28:23.393Z,1.60
2023-09-26T13:29:23.333Z,1.50
2023-09-26T13:30:23.340Z,1.50
2023-09-26T13:31:23.354Z,1.60
2023-09-26T13:32:23.415Z,1.60
2023-09-26T13:33:23.362Z,1.40
2023-09-26T13:34:23.282Z,1.20
2023-09-26T13:35:23.312Z,1.80
2023-09-26T13:36:23.266Z,1.40
2023-09-26T13:37:23.267Z,1.50
2023-09-26T13:38:23.301Z,1.60
2023-09-26T13:39:23.314Z,1.50
2023-09-26T13:40:23.214Z,1.40
2023-09-26T13:41:23.235Z,1.50
2023-09-26T13:42:23.207Z,1.40
2023-09-26T13:43:23.205Z,1.30
2023-09-26T13:44:23.212Z,1.40
2023-09-26T13:45:23.166Z,1.30
2023-09-26T13:46:23.239Z,1.30
2023-09-26T13:47:23.191Z,1.60
2023-09-26T13:48:23.220Z,1.50